sensor_id;sensor_type;location;lat;lon;timestamp;P1;durP1;ratioP1;P2;durP2;ratioP2
26634;SDS011;14490;54.208;37.686;2023-07-09T00:01:49;11.90;;;9.65;;
26634;SDS011;14490;54.208;37.686;2023-07-09T00:04:16;11.32;;;10.10;;
26634;SDS011;14490;54.208;37.686;2023-07-09T00:06:44;12.60;;;10.35;;
26634;SDS011;14490;54.208;37.686;2023-07-09T00:09:12;13.52;;;10.02;;
26634;SDS011;14490;54.208;37.686;2023-07-09T00:11:40;11.75;;;10.02;;
26634;SDS011;14490;54.208;37.686;2023-07-09T00:14:09;12.15;;;10.07;;
26634;SDS011;14490;54.208;37.686;2023-07-09T00:16:36;18.80;;;11.38;;
26634;SDS011;14490;54.208;37.686;2023-07-09T00:19:04;12.30;;;10.50;;
26634;SDS011;14490;54.208;37.686;2023-07-09T00:21:31;12.25;;;10.55;;
26634;SDS011;14490;54.208;37.686;2023-07-09T00:23:59;10.38;;;9.40;;
26634;SDS011;14490;54.208;37.686;2023-07-09T00:26:30;13.10;;;10.53;;
26634;SDS011;14490;54.208;37.686;2023-07-09T00:28:57;9.77;;;8.80;;
26634;SDS011;14490;54.208;37.686;2023-07-09T00:31:26;11.02;;;9.93;;
26634;SDS011;14490;54.208;37.686;2023-07-09T00:33:53;16.45;;;10.55;;
26634;SDS011;14490;54.208;37.686;2023-07-09T00:36:28;13.15;;;10.10;;
26634;SDS011;14490;54.208;37.686;2023-07-09T00:38:56;14.60;;;10.07;;
26634;SDS011;14490;54.208;37.686;2023-07-09T00:41:29;10.68;;;9.57;;
26634;SDS011;14490;54.208;37.686;2023-07-09T00:43:58;10.82;;;9.60;;
26634;SDS011;14490;54.208;37.686;2023-07-09T00:49:50;11.15;;;9.88;;
26634;SDS011;14490;54.208;37.686;2023-07-09T00:52:25;11.63;;;9.75;;
26634;SDS011;14490;54.208;37.686;2023-07-09T00:54:57;15.98;;;10.38;;
26634;SDS011;14490;54.208;37.686;2023-07-09T00:57:26;12.32;;;10.13;;
26634;SDS011;14490;54.208;37.686;2023-07-09T00:59:55;11.93;;;9.95;;
26634;SDS011;14490;54.208;37.686;2023-07-09T01:02:23;10.70;;;9.57;;
26634;SDS011;14490;54.208;37.686;2023-07-09T01:04:51;11.63;;;10.43;;
26634;SDS011;14490;54.208;37.686;2023-07-09T01:07:21;12.60;;;8.30;;
26634;SDS011;14490;54.208;37.686;2023-07-09T01:09:48;9.77;;;8.00;;
26634;SDS011;14490;54.208;37.686;2023-07-09T01:12:16;10.07;;;9.05;;
26634;SDS011;14490;54.208;37.686;2023-07-09T01:14:45;11.23;;;8.05;;
26634;SDS011;14490;54.208;37.686;2023-07-09T01:19:44;11.65;;;8.73;;
26634;SDS011;14490;54.208;37.686;2023-07-09T01:22:17;12.25;;;9.30;;
26634;SDS011;14490;54.208;37.686;2023-07-09T01:24:46;10.73;;;8.43;;
26634;SDS011;14490;54.208;37.686;2023-07-09T01:27:17;11.45;;;9.93;;
26634;SDS011;14490;54.208;37.686;2023-07-09T01:29:46;10.63;;;9.15;;
26634;SDS011;14490;54.208;37.686;2023-07-09T01:32:15;13.15;;;8.75;;
26634;SDS011;14490;54.208;37.686;2023-07-09T01:34:44;9.52;;;7.57;;
26634;SDS011;14490;54.208;37.686;2023-07-09T01:37:12;11.20;;;7.65;;
26634;SDS011;14490;54.208;37.686;2023-07-09T01:39:42;8.95;;;8.05;;
26634;SDS011;14490;54.208;37.686;2023-07-09T01:42:09;12.52;;;7.80;;
26634;SDS011;14490;54.208;37.686;2023-07-09T01:44:36;9.15;;;8.27;;
26634;SDS011;14490;54.208;37.686;2023-07-09T01:47:04;8.75;;;7.80;;
26634;SDS011;14490;54.208;37.686;2023-07-09T01:49:31;13.90;;;8.23;;
26634;SDS011;14490;54.208;37.686;2023-07-09T01:51:59;14.10;;;8.50;;
26634;SDS011;14490;54.208;37.686;2023-07-09T01:54:27;11.63;;;7.80;;
26634;SDS011;14490;54.208;37.686;2023-07-09T01:59:40;9.20;;;8.50;;
26634;SDS011;14490;54.208;37.686;2023-07-09T02:02:09;11.20;;;8.50;;
26634;SDS011;14490;54.208;37.686;2023-07-09T02:07:08;13.00;;;9.38;;
26634;SDS011;14490;54.208;37.686;2023-07-09T02:09:35;11.10;;;9.07;;
26634;SDS011;14490;54.208;37.686;2023-07-09T02:12:02;11.32;;;8.38;;
26634;SDS011;14490;54.208;37.686;2023-07-09T02:14:31;9.88;;;8.82;;
26634;SDS011;14490;54.208;37.686;2023-07-09T02:16:58;12.30;;;7.80;;
26634;SDS011;14490;54.208;37.686;2023-07-09T02:19:25;10.65;;;8.02;;
26634;SDS011;14490;54.208;37.686;2023-07-09T02:21:52;12.15;;;8.77;;
26634;SDS011;14490;54.208;37.686;2023-07-09T02:24:19;10.93;;;8.32;;
26634;SDS011;14490;54.208;37.686;2023-07-09T02:26:49;10.05;;;7.88;;
26634;SDS011;14490;54.208;37.686;2023-07-09T02:29:16;12.30;;;7.65;;
26634;SDS011;14490;54.208;37.686;2023-07-09T02:31:45;11.55;;;8.57;;
26634;SDS011;14490;54.208;37.686;2023-07-09T02:34:12;11.80;;;7.47;;
26634;SDS011;14490;54.208;37.686;2023-07-09T02:36:39;11.23;;;7.45;;
26634;SDS011;14490;54.208;37.686;2023-07-09T02:39:08;9.88;;;7.28;;
26634;SDS011;14490;54.208;37.686;2023-07-09T02:41:35;13.40;;;7.28;;
26634;SDS011;14490;54.208;37.686;2023-07-09T02:44:02;9.77;;;7.18;;
26634;SDS011;14490;54.208;37.686;2023-07-09T02:46:29;8.52;;;7.13;;
26634;SDS011;14490;54.208;37.686;2023-07-09T02:48:58;9.48;;;7.05;;
26634;SDS011;14490;54.208;37.686;2023-07-09T02:51:25;6.82;;;5.97;;
26634;SDS011;14490;54.208;37.686;2023-07-09T02:53:53;9.43;;;7.38;;
26634;SDS011;14490;54.208;37.686;2023-07-09T02:56:20;8.23;;;6.30;;
26634;SDS011;14490;54.208;37.686;2023-07-09T02:58:47;8.07;;;5.82;;
26634;SDS011;14490;54.208;37.686;2023-07-09T03:01:14;10.10;;;7.53;;
26634;SDS011;14490;54.208;37.686;2023-07-09T03:03:41;10.00;;;5.50;;
26634;SDS011;14490;54.208;37.686;2023-07-09T03:06:09;12.40;;;6.70;;
26634;SDS011;14490;54.208;37.686;2023-07-09T03:08:36;15.25;;;6.85;;
26634;SDS011;14490;54.208;37.686;2023-07-09T03:11:08;9.88;;;6.70;;
26634;SDS011;14490;54.208;37.686;2023-07-09T03:13:36;9.43;;;7.10;;
26634;SDS011;14490;54.208;37.686;2023-07-09T03:16:03;7.43;;;6.30;;
26634;SDS011;14490;54.208;37.686;2023-07-09T03:18:30;10.20;;;7.10;;
26634;SDS011;14490;54.208;37.686;2023-07-09T03:20:58;10.82;;;7.03;;
26634;SDS011;14490;54.208;37.686;2023-07-09T03:23:26;7.22;;;6.03;;
26634;SDS011;14490;54.208;37.686;2023-07-09T03:25:56;8.38;;;7.47;;
26634;SDS011;14490;54.208;37.686;2023-07-09T03:28:24;8.00;;;6.30;;
26634;SDS011;14490;54.208;37.686;2023-07-09T03:30:53;11.15;;;6.50;;
26634;SDS011;14490;54.208;37.686;2023-07-09T03:33:21;10.68;;;5.75;;
26634;SDS011;14490;54.208;37.686;2023-07-09T03:35:49;8.90;;;5.63;;
26634;SDS011;14490;54.208;37.686;2023-07-09T03:38:16;6.85;;;5.95;;
26634;SDS011;14490;54.208;37.686;2023-07-09T03:40:45;7.50;;;6.00;;
26634;SDS011;14490;54.208;37.686;2023-07-09T03:43:12;8.95;;;6.55;;
26634;SDS011;14490;54.208;37.686;2023-07-09T03:45:39;7.25;;;6.60;;
26634;SDS011;14490;54.208;37.686;2023-07-09T03:48:06;14.63;;;7.00;;
26634;SDS011;14490;54.208;37.686;2023-07-09T03:50:33;6.47;;;5.85;;
26634;SDS011;14490;54.208;37.686;2023-07-09T03:53:00;7.03;;;5.63;;
26634;SDS011;14490;54.208;37.686;2023-07-09T03:55:27;7.47;;;5.47;;
26634;SDS011;14490;54.208;37.686;2023-07-09T03:57:55;6.60;;;5.95;;
26634;SDS011;14490;54.208;37.686;2023-07-09T04:00:23;6.57;;;5.60;;
26634;SDS011;14490;54.208;37.686;2023-07-09T04:02:51;7.28;;;5.55;;
26634;SDS011;14490;54.208;37.686;2023-07-09T04:05:18;9.38;;;6.13;;
26634;SDS011;14490;54.208;37.686;2023-07-09T04:07:45;11.18;;;7.55;;
26634;SDS011;14490;54.208;37.686;2023-07-09T04:10:13;8.63;;;7.22;;
26634;SDS011;14490;54.208;37.686;2023-07-09T04:12:40;10.40;;;7.72;;
26634;SDS011;14490;54.208;37.686;2023-07-09T04:15:09;8.30;;;7.53;;
26634;SDS011;14490;54.208;37.686;2023-07-09T04:17:37;10.38;;;7.65;;
26634;SDS011;14490;54.208;37.686;2023-07-09T04:20:05;12.85;;;9.05;;
26634;SDS011;14490;54.208;37.686;2023-07-09T04:22:34;14.93;;;8.15;;
26634;SDS011;14490;54.208;37.686;2023-07-09T04:25:02;9.57;;;8.25;;
26634;SDS011;14490;54.208;37.686;2023-07-09T04:27:30;9.02;;;7.63;;
26634;SDS011;14490;54.208;37.686;2023-07-09T04:29:57;10.38;;;8.15;;
26634;SDS011;14490;54.208;37.686;2023-07-09T04:32:26;12.50;;;6.75;;
26634;SDS011;14490;54.208;37.686;2023-07-09T04:34:52;10.95;;;5.95;;
26634;SDS011;14490;54.208;37.686;2023-07-09T04:37:19;9.13;;;6.50;;
26634;SDS011;14490;54.208;37.686;2023-07-09T04:39:46;7.50;;;6.80;;
26634;SDS011;14490;54.208;37.686;2023-07-09T04:42:15;12.93;;;6.15;;
26634;SDS011;14490;54.208;37.686;2023-07-09T04:44:43;7.25;;;5.78;;
26634;SDS011;14490;54.208;37.686;2023-07-09T04:47:10;6.38;;;4.57;;
26634;SDS011;14490;54.208;37.686;2023-07-09T04:49:40;7.82;;;5.97;;
26634;SDS011;14490;54.208;37.686;2023-07-09T04:52:07;8.98;;;5.00;;
26634;SDS011;14490;54.208;37.686;2023-07-09T04:54:37;10.80;;;4.63;;
26634;SDS011;14490;54.208;37.686;2023-07-09T04:57:05;6.93;;;5.28;;
26634;SDS011;14490;54.208;37.686;2023-07-09T04:59:33;6.53;;;5.93;;
26634;SDS011;14490;54.208;37.686;2023-07-09T05:02:00;7.00;;;6.18;;
26634;SDS011;14490;54.208;37.686;2023-07-09T05:04:27;9.75;;;6.55;;
26634;SDS011;14490;54.208;37.686;2023-07-09T05:06:56;10.70;;;7.25;;
26634;SDS011;14490;54.208;37.686;2023-07-09T05:09:23;6.80;;;5.75;;
26634;SDS011;14490;54.208;37.686;2023-07-09T05:11:50;9.35;;;6.00;;
26634;SDS011;14490;54.208;37.686;2023-07-09T05:14:17;10.02;;;5.78;;
26634;SDS011;14490;54.208;37.686;2023-07-09T05:16:44;6.75;;;5.53;;
26634;SDS011;14490;54.208;37.686;2023-07-09T05:19:11;6.43;;;5.43;;
26634;SDS011;14490;54.208;37.686;2023-07-09T05:21:39;12.95;;;5.57;;
26634;SDS011;14490;54.208;37.686;2023-07-09T05:24:07;7.25;;;5.50;;
26634;SDS011;14490;54.208;37.686;2023-07-09T05:26:34;5.97;;;4.93;;
26634;SDS011;14490;54.208;37.686;2023-07-09T05:29:02;8.80;;;5.18;;
26634;SDS011;14490;54.208;37.686;2023-07-09T05:31:30;8.60;;;6.03;;
26634;SDS011;14490;54.208;37.686;2023-07-09T05:33:58;11.27;;;6.18;;
26634;SDS011;14490;54.208;37.686;2023-07-09T05:36:25;9.00;;;6.93;;
26634;SDS011;14490;54.208;37.686;2023-07-09T05:38:52;10.32;;;6.57;;
26634;SDS011;14490;54.208;37.686;2023-07-09T05:41:20;10.70;;;6.05;;
26634;SDS011;14490;54.208;37.686;2023-07-09T05:43:49;6.78;;;5.82;;
26634;SDS011;14490;54.208;37.686;2023-07-09T05:46:16;8.68;;;6.97;;
26634;SDS011;14490;54.208;37.686;2023-07-09T05:48:43;9.10;;;6.95;;
26634;SDS011;14490;54.208;37.686;2023-07-09T05:51:09;7.88;;;5.43;;
26634;SDS011;14490;54.208;37.686;2023-07-09T05:53:36;6.32;;;5.70;;
26634;SDS011;14490;54.208;37.686;2023-07-09T05:56:04;7.25;;;5.65;;
26634;SDS011;14490;54.208;37.686;2023-07-09T05:58:33;7.60;;;5.50;;
26634;SDS011;14490;54.208;37.686;2023-07-09T06:01:00;8.65;;;5.60;;
26634;SDS011;14490;54.208;37.686;2023-07-09T06:03:28;9.45;;;6.03;;
26634;SDS011;14490;54.208;37.686;2023-07-09T06:05:55;7.43;;;5.53;;
26634;SDS011;14490;54.208;37.686;2023-07-09T06:08:23;6.15;;;4.43;;
26634;SDS011;14490;54.208;37.686;2023-07-09T06:10:54;9.18;;;5.57;;
26634;SDS011;14490;54.208;37.686;2023-07-09T06:13:23;6.07;;;5.47;;
26634;SDS011;14490;54.208;37.686;2023-07-09T06:15:51;9.35;;;5.03;;
26634;SDS011;14490;54.208;37.686;2023-07-09T06:18:19;8.80;;;5.20;;
26634;SDS011;14490;54.208;37.686;2023-07-09T06:20:47;8.50;;;4.78;;
26634;SDS011;14490;54.208;37.686;2023-07-09T06:23:15;5.50;;;4.68;;
26634;SDS011;14490;54.208;37.686;2023-07-09T06:25:42;5.43;;;4.80;;
26634;SDS011;14490;54.208;37.686;2023-07-09T06:28:12;8.07;;;4.55;;
26634;SDS011;14490;54.208;37.686;2023-07-09T06:30:40;13.45;;;5.72;;
26634;SDS011;14490;54.208;37.686;2023-07-09T06:33:08;10.07;;;4.35;;
26634;SDS011;14490;54.208;37.686;2023-07-09T06:35:36;5.07;;;4.60;;
26634;SDS011;14490;54.208;37.686;2023-07-09T06:38:05;6.20;;;3.22;;
26634;SDS011;14490;54.208;37.686;2023-07-09T06:40:32;7.30;;;4.63;;
26634;SDS011;14490;54.208;37.686;2023-07-09T06:43:00;6.05;;;3.72;;
26634;SDS011;14490;54.208;37.686;2023-07-09T06:45:27;8.68;;;4.43;;
26634;SDS011;14490;54.208;37.686;2023-07-09T06:47:54;7.82;;;3.88;;
26634;SDS011;14490;54.208;37.686;2023-07-09T06:50:22;5.85;;;3.80;;
26634;SDS011;14490;54.208;37.686;2023-07-09T06:52:49;4.60;;;3.30;;
26634;SDS011;14490;54.208;37.686;2023-07-09T06:55:16;4.00;;;3.55;;
26634;SDS011;14490;54.208;37.686;2023-07-09T06:57:43;3.72;;;3.42;;
26634;SDS011;14490;54.208;37.686;2023-07-09T07:00:11;5.55;;;2.83;;
26634;SDS011;14490;54.208;37.686;2023-07-09T07:02:38;5.95;;;3.72;;
26634;SDS011;14490;54.208;37.686;2023-07-09T07:05:05;4.90;;;2.90;;
26634;SDS011;14490;54.208;37.686;2023-07-09T07:07:34;3.90;;;3.17;;
26634;SDS011;14490;54.208;37.686;2023-07-09T07:10:01;4.05;;;3.47;;
26634;SDS011;14490;54.208;37.686;2023-07-09T07:12:28;4.13;;;3.60;;
26634;SDS011;14490;54.208;37.686;2023-07-09T07:14:56;4.70;;;2.92;;
26634;SDS011;14490;54.208;37.686;2023-07-09T07:17:24;3.42;;;3.13;;
26634;SDS011;14490;54.208;37.686;2023-07-09T07:19:51;4.95;;;3.63;;
26634;SDS011;14490;54.208;37.686;2023-07-09T07:22:18;3.90;;;2.25;;
26634;SDS011;14490;54.208;37.686;2023-07-09T07:24:47;3.67;;;2.60;;
26634;SDS011;14490;54.208;37.686;2023-07-09T07:27:13;3.67;;;2.97;;
26634;SDS011;14490;54.208;37.686;2023-07-09T07:29:40;2.42;;;2.22;;
26634;SDS011;14490;54.208;37.686;2023-07-09T07:32:08;4.82;;;2.63;;
26634;SDS011;14490;54.208;37.686;2023-07-09T07:34:35;4.95;;;2.88;;
26634;SDS011;14490;54.208;37.686;2023-07-09T07:37:02;3.83;;;3.08;;
26634;SDS011;14490;54.208;37.686;2023-07-09T07:39:29;2.92;;;2.58;;
26634;SDS011;14490;54.208;37.686;2023-07-09T07:41:57;5.63;;;3.47;;
26634;SDS011;14490;54.208;37.686;2023-07-09T07:44:24;2.92;;;2.63;;
26634;SDS011;14490;54.208;37.686;2023-07-09T07:46:53;4.20;;;3.53;;
26634;SDS011;14490;54.208;37.686;2023-07-09T07:49:20;7.57;;;2.90;;
26634;SDS011;14490;54.208;37.686;2023-07-09T07:51:47;4.88;;;2.65;;
26634;SDS011;14490;54.208;37.686;2023-07-09T07:54:14;5.70;;;2.90;;
26634;SDS011;14490;54.208;37.686;2023-07-09T07:56:43;5.15;;;2.40;;
26634;SDS011;14490;54.208;37.686;2023-07-09T07:59:13;4.28;;;2.58;;
26634;SDS011;14490;54.208;37.686;2023-07-09T08:01:40;6.97;;;2.90;;
26634;SDS011;14490;54.208;37.686;2023-07-09T08:04:09;7.90;;;3.55;;
26634;SDS011;14490;54.208;37.686;2023-07-09T08:06:36;6.22;;;3.63;;
26634;SDS011;14490;54.208;37.686;2023-07-09T08:09:03;5.80;;;3.55;;
26634;SDS011;14490;54.208;37.686;2023-07-09T08:11:30;3.85;;;3.50;;
26634;SDS011;14490;54.208;37.686;2023-07-09T08:13:57;5.97;;;3.70;;
26634;SDS011;14490;54.208;37.686;2023-07-09T08:16:27;3.50;;;3.03;;
26634;SDS011;14490;54.208;37.686;2023-07-09T08:18:54;5.97;;;2.60;;
26634;SDS011;14490;54.208;37.686;2023-07-09T08:21:21;5.25;;;2.78;;
26634;SDS011;14490;54.208;37.686;2023-07-09T08:23:48;5.57;;;2.70;;
26634;SDS011;14490;54.208;37.686;2023-07-09T08:26:15;5.25;;;3.10;;
26634;SDS011;14490;54.208;37.686;2023-07-09T08:28:44;3.55;;;2.17;;
26634;SDS011;14490;54.208;37.686;2023-07-09T08:31:13;5.10;;;2.65;;
26634;SDS011;14490;54.208;37.686;2023-07-09T08:36:11;4.10;;;2.72;;
26634;SDS011;14490;54.208;37.686;2023-07-09T08:38:38;5.70;;;2.58;;
26634;SDS011;14490;54.208;37.686;2023-07-09T08:41:09;2.53;;;1.95;;
26634;SDS011;14490;54.208;37.686;2023-07-09T08:43:51;6.50;;;2.20;;
26634;SDS011;14490;54.208;37.686;2023-07-09T08:46:26;4.15;;;2.08;;
26634;SDS011;14490;54.208;37.686;2023-07-09T08:49:01;6.05;;;2.20;;
26634;SDS011;14490;54.208;37.686;2023-07-09T08:51:31;2.78;;;2.05;;
26634;SDS011;14490;54.208;37.686;2023-07-09T08:54:01;4.97;;;1.98;;
26634;SDS011;14490;54.208;37.686;2023-07-09T08:56:30;4.20;;;1.90;;
26634;SDS011;14490;54.208;37.686;2023-07-09T08:58:59;6.57;;;1.88;;
26634;SDS011;14490;54.208;37.686;2023-07-09T09:01:28;6.22;;;1.85;;
26634;SDS011;14490;54.208;37.686;2023-07-09T09:06:29;2.67;;;1.88;;
26634;SDS011;14490;54.208;37.686;2023-07-09T09:09:02;3.25;;;1.70;;
26634;SDS011;14490;54.208;37.686;2023-07-09T09:11:34;3.15;;;1.35;;
26634;SDS011;14490;54.208;37.686;2023-07-09T09:14:15;2.88;;;1.80;;
26634;SDS011;14490;54.208;37.686;2023-07-09T09:16:46;3.60;;;2.08;;
26634;SDS011;14490;54.208;37.686;2023-07-09T09:19:15;7.15;;;2.10;;
26634;SDS011;14490;54.208;37.686;2023-07-09T09:21:48;3.95;;;1.92;;
26634;SDS011;14490;54.208;37.686;2023-07-09T09:24:23;3.35;;;2.03;;
26634;SDS011;14490;54.208;37.686;2023-07-09T09:26:54;2.30;;;1.80;;
26634;SDS011;14490;54.208;37.686;2023-07-09T09:29:23;4.35;;;2.00;;
26634;SDS011;14490;54.208;37.686;2023-07-09T09:31:52;5.25;;;2.65;;
26634;SDS011;14490;54.208;37.686;2023-07-09T09:34:22;2.33;;;1.92;;
26634;SDS011;14490;54.208;37.686;2023-07-09T09:36:53;2.17;;;1.90;;
26634;SDS011;14490;54.208;37.686;2023-07-09T09:39:23;4.78;;;2.47;;
26634;SDS011;14490;54.208;37.686;2023-07-09T09:41:52;2.95;;;2.22;;
26634;SDS011;14490;54.208;37.686;2023-07-09T09:44:27;2.35;;;2.15;;
26634;SDS011;14490;54.208;37.686;2023-07-09T09:46:56;2.15;;;1.65;;
26634;SDS011;14490;54.208;37.686;2023-07-09T09:49:23;2.65;;;2.03;;
26634;SDS011;14490;54.208;37.686;2023-07-09T09:51:50;2.53;;;2.13;;
26634;SDS011;14490;54.208;37.686;2023-07-09T09:54:24;3.90;;;1.92;;
26634;SDS011;14490;54.208;37.686;2023-07-09T09:56:53;4.65;;;2.20;;
26634;SDS011;14490;54.208;37.686;2023-07-09T09:59:27;3.75;;;1.92;;
26634;SDS011;14490;54.208;37.686;2023-07-09T10:01:57;4.20;;;2.95;;
26634;SDS011;14490;54.208;37.686;2023-07-09T10:04:25;2.30;;;2.00;;
26634;SDS011;14490;54.208;37.686;2023-07-09T10:06:52;6.80;;;2.90;;
26634;SDS011;14490;54.208;37.686;2023-07-09T10:09:31;4.30;;;2.30;;
26634;SDS011;14490;54.208;37.686;2023-07-09T10:12:05;3.28;;;2.15;;
26634;SDS011;14490;54.208;37.686;2023-07-09T10:14:38;4.72;;;2.15;;
26634;SDS011;14490;54.208;37.686;2023-07-09T10:19:42;10.23;;;1.93;;
26634;SDS011;14490;54.208;37.686;2023-07-09T10:22:16;1.80;;;1.70;;
26634;SDS011;14490;54.208;37.686;2023-07-09T10:24:56;2.53;;;1.80;;
26634;SDS011;14490;54.208;37.686;2023-07-09T10:27:29;2.88;;;2.10;;
26634;SDS011;14490;54.208;37.686;2023-07-09T10:30:01;2.40;;;1.60;;
26634;SDS011;14490;54.208;37.686;2023-07-09T10:32:50;1.77;;;1.67;;
26634;SDS011;14490;54.208;37.686;2023-07-09T10:35:25;5.03;;;1.95;;
26634;SDS011;14490;54.208;37.686;2023-07-09T10:38:05;2.58;;;1.70;;
26634;SDS011;14490;54.208;37.686;2023-07-09T10:40:43;1.98;;;1.70;;
26634;SDS011;14490;54.208;37.686;2023-07-09T10:43:14;3.08;;;1.88;;
26634;SDS011;14490;54.208;37.686;2023-07-09T10:45:46;3.25;;;2.10;;
26634;SDS011;14490;54.208;37.686;2023-07-09T10:48:15;4.20;;;1.75;;
26634;SDS011;14490;54.208;37.686;2023-07-09T10:50:44;1.85;;;1.23;;
26634;SDS011;14490;54.208;37.686;2023-07-09T10:53:14;2.58;;;1.60;;
26634;SDS011;14490;54.208;37.686;2023-07-09T10:55:49;3.30;;;1.25;;
26634;SDS011;14490;54.208;37.686;2023-07-09T10:58:27;2.33;;;1.63;;
26634;SDS011;14490;54.208;37.686;2023-07-09T11:01:00;3.05;;;1.60;;
26634;SDS011;14490;54.208;37.686;2023-07-09T11:03:33;2.00;;;1.55;;
26634;SDS011;14490;54.208;37.686;2023-07-09T11:06:09;12.23;;;1.77;;
26634;SDS011;14490;54.208;37.686;2023-07-09T11:08:40;1.60;;;1.45;;
26634;SDS011;14490;54.208;37.686;2023-07-09T11:11:10;3.03;;;1.63;;
26634;SDS011;14490;54.208;37.686;2023-07-09T11:13:41;4.43;;;1.42;;
26634;SDS011;14490;54.208;37.686;2023-07-09T11:16:11;1.45;;;1.35;;
26634;SDS011;14490;54.208;37.686;2023-07-09T11:18:40;1.67;;;1.17;;
26634;SDS011;14490;54.208;37.686;2023-07-09T11:21:07;2.17;;;1.20;;
26634;SDS011;14490;54.208;37.686;2023-07-09T11:23:43;2.70;;;1.55;;
26634;SDS011;14490;54.208;37.686;2023-07-09T11:26:15;5.18;;;2.00;;
26634;SDS011;14490;54.208;37.686;2023-07-09T11:28:50;3.70;;;1.58;;
26634;SDS011;14490;54.208;37.686;2023-07-09T11:31:22;2.70;;;1.55;;
26634;SDS011;14490;54.208;37.686;2023-07-09T11:33:59;2.72;;;1.33;;
26634;SDS011;14490;54.208;37.686;2023-07-09T11:36:27;2.65;;;1.80;;
26634;SDS011;14490;54.208;37.686;2023-07-09T11:38:55;5.82;;;3.25;;
26634;SDS011;14490;54.208;37.686;2023-07-09T11:41:41;2.33;;;1.63;;
26634;SDS011;14490;54.208;37.686;2023-07-09T11:44:11;3.25;;;1.35;;
26634;SDS011;14490;54.208;37.686;2023-07-09T11:46:44;2.55;;;1.70;;
26634;SDS011;14490;54.208;37.686;2023-07-09T11:49:31;1.58;;;1.45;;
26634;SDS011;14490;54.208;37.686;2023-07-09T11:52:02;8.23;;;2.43;;
26634;SDS011;14490;54.208;37.686;2023-07-09T11:54:33;4.55;;;1.92;;
26634;SDS011;14490;54.208;37.686;2023-07-09T11:57:02;2.13;;;1.70;;
26634;SDS011;14490;54.208;37.686;2023-07-09T11:59:37;2.90;;;1.60;;
26634;SDS011;14490;54.208;37.686;2023-07-09T12:02:05;7.35;;;1.80;;
26634;SDS011;14490;54.208;37.686;2023-07-09T12:04:33;4.03;;;1.90;;
26634;SDS011;14490;54.208;37.686;2023-07-09T12:07:01;4.65;;;1.75;;
26634;SDS011;14490;54.208;37.686;2023-07-09T12:09:31;4.07;;;1.70;;
26634;SDS011;14490;54.208;37.686;2023-07-09T12:19:22;2.33;;;1.52;;
26634;SDS011;14490;54.208;37.686;2023-07-09T12:21:56;3.58;;;1.63;;
26634;SDS011;14490;54.208;37.686;2023-07-09T12:24:28;2.80;;;1.60;;
26634;SDS011;14490;54.208;37.686;2023-07-09T12:26:58;1.95;;;1.38;;
26634;SDS011;14490;54.208;37.686;2023-07-09T12:29:26;2.03;;;1.50;;
26634;SDS011;14490;54.208;37.686;2023-07-09T12:31:55;3.33;;;1.65;;
26634;SDS011;14490;54.208;37.686;2023-07-09T12:34:24;2.53;;;1.73;;
26634;SDS011;14490;54.208;37.686;2023-07-09T12:36:52;2.05;;;1.63;;
26634;SDS011;14490;54.208;37.686;2023-07-09T12:39:21;2.40;;;1.52;;
26634;SDS011;14490;54.208;37.686;2023-07-09T12:41:51;5.68;;;1.60;;
26634;SDS011;14490;54.208;37.686;2023-07-09T12:44:21;2.33;;;1.77;;
26634;SDS011;14490;54.208;37.686;2023-07-09T12:46:49;1.83;;;1.60;;
26634;SDS011;14490;54.208;37.686;2023-07-09T12:49:21;2.15;;;1.67;;
26634;SDS011;14490;54.208;37.686;2023-07-09T12:51:53;1.88;;;1.50;;
26634;SDS011;14490;54.208;37.686;2023-07-09T12:54:21;5.43;;;1.65;;
26634;SDS011;14490;54.208;37.686;2023-07-09T12:56:50;5.00;;;1.90;;
26634;SDS011;14490;54.208;37.686;2023-07-09T12:59:19;2.92;;;1.67;;
26634;SDS011;14490;54.208;37.686;2023-07-09T13:01:50;2.90;;;2.50;;
26634;SDS011;14490;54.208;37.686;2023-07-09T13:06:46;2.15;;;1.65;;
26634;SDS011;14490;54.208;37.686;2023-07-09T13:09:18;2.05;;;1.70;;
26634;SDS011;14490;54.208;37.686;2023-07-09T13:11:47;4.82;;;1.40;;
26634;SDS011;14490;54.208;37.686;2023-07-09T13:14:16;2.80;;;2.17;;
26634;SDS011;14490;54.208;37.686;2023-07-09T13:16:45;2.58;;;1.75;;
26634;SDS011;14490;54.208;37.686;2023-07-09T13:19:13;5.47;;;1.65;;
26634;SDS011;14490;54.208;37.686;2023-07-09T13:21:40;3.78;;;2.00;;
26634;SDS011;14490;54.208;37.686;2023-07-09T13:24:12;7.07;;;1.70;;
26634;SDS011;14490;54.208;37.686;2023-07-09T13:26:41;4.43;;;1.77;;
26634;SDS011;14490;54.208;37.686;2023-07-09T13:29:10;2.90;;;2.08;;
26634;SDS011;14490;54.208;37.686;2023-07-09T13:31:40;2.50;;;1.58;;
26634;SDS011;14490;54.208;37.686;2023-07-09T13:34:08;7.28;;;1.77;;
26634;SDS011;14490;54.208;37.686;2023-07-09T13:36:43;3.25;;;2.33;;
26634;SDS011;14490;54.208;37.686;2023-07-09T13:39:10;3.58;;;1.83;;
26634;SDS011;14490;54.208;37.686;2023-07-09T13:41:40;5.72;;;2.22;;
26634;SDS011;14490;54.208;37.686;2023-07-09T13:44:10;2.53;;;1.75;;
26634;SDS011;14490;54.208;37.686;2023-07-09T13:46:38;2.20;;;1.83;;
26634;SDS011;14490;54.208;37.686;2023-07-09T13:49:07;2.45;;;1.92;;
26634;SDS011;14490;54.208;37.686;2023-07-09T13:51:35;3.60;;;2.03;;
26634;SDS011;14490;54.208;37.686;2023-07-09T13:54:09;4.97;;;1.75;;
26634;SDS011;14490;54.208;37.686;2023-07-09T13:56:43;3.53;;;1.77;;
26634;SDS011;14490;54.208;37.686;2023-07-09T13:59:14;1.65;;;1.55;;
26634;SDS011;14490;54.208;37.686;2023-07-09T14:01:42;2.08;;;1.42;;
26634;SDS011;14490;54.208;37.686;2023-07-09T14:04:11;3.42;;;1.35;;
26634;SDS011;14490;54.208;37.686;2023-07-09T14:06:39;3.45;;;1.85;;
26634;SDS011;14490;54.208;37.686;2023-07-09T14:09:06;4.53;;;1.55;;
26634;SDS011;14490;54.208;37.686;2023-07-09T14:11:36;2.90;;;1.30;;
26634;SDS011;14490;54.208;37.686;2023-07-09T14:14:07;3.08;;;1.50;;
26634;SDS011;14490;54.208;37.686;2023-07-09T14:16:40;6.05;;;1.65;;
26634;SDS011;14490;54.208;37.686;2023-07-09T14:19:09;1.50;;;1.30;;
26634;SDS011;14490;54.208;37.686;2023-07-09T14:21:39;2.95;;;1.50;;
26634;SDS011;14490;54.208;37.686;2023-07-09T14:24:10;3.50;;;1.50;;
26634;SDS011;14490;54.208;37.686;2023-07-09T14:26:45;3.38;;;1.52;;
26634;SDS011;14490;54.208;37.686;2023-07-09T14:29:12;2.05;;;1.33;;
26634;SDS011;14490;54.208;37.686;2023-07-09T14:31:41;1.95;;;1.40;;
26634;SDS011;14490;54.208;37.686;2023-07-09T14:34:16;2.55;;;1.65;;
26634;SDS011;14490;54.208;37.686;2023-07-09T14:36:46;5.45;;;1.70;;
26634;SDS011;14490;54.208;37.686;2023-07-09T14:39:13;5.15;;;1.60;;
26634;SDS011;14490;54.208;37.686;2023-07-09T14:41:40;1.98;;;1.20;;
26634;SDS011;14490;54.208;37.686;2023-07-09T14:44:14;1.42;;;1.33;;
26634;SDS011;14490;54.208;37.686;2023-07-09T14:46:47;4.63;;;1.50;;
26634;SDS011;14490;54.208;37.686;2023-07-09T14:49:14;2.28;;;1.40;;
26634;SDS011;14490;54.208;37.686;2023-07-09T14:51:41;2.00;;;1.60;;
26634;SDS011;14490;54.208;37.686;2023-07-09T14:54:10;6.43;;;1.50;;
26634;SDS011;14490;54.208;37.686;2023-07-09T14:56:44;2.25;;;1.70;;
26634;SDS011;14490;54.208;37.686;2023-07-09T14:59:13;2.15;;;1.60;;
26634;SDS011;14490;54.208;37.686;2023-07-09T15:01:40;3.03;;;1.52;;
26634;SDS011;14490;54.208;37.686;2023-07-09T15:04:13;2.53;;;1.13;;
26634;SDS011;14490;54.208;37.686;2023-07-09T15:06:52;2.78;;;1.50;;
26634;SDS011;14490;54.208;37.686;2023-07-09T15:09:21;1.60;;;1.45;;
26634;SDS011;14490;54.208;37.686;2023-07-09T15:11:48;1.98;;;1.50;;